Capitol Logistics 78




KSBD
San Bernardino International Airport
San Bernardino, California
PANC
Ted Stevens Anchorage International Airport
Anchorage, Alaska

Activity Log

Date Flight Route Aircraft Duration
10/25/2021 CPX78 PMD J6 SNS J88 PYE J143 ENI FOT BOXER B453 KYLLE B453 TAMRU KURTT B453 KATCH B453 MDO WITTI4 B744 5h 12m

Route Details

Aircraft Information
Group: Boeing Long Haul
Types: B744,B763
Route Data
Demand: L
Distance: 2057nm
Duration: 4h 40m
Recm'd Route: PMD J6 SNS J88 PYE J143 ENI FOT BOXER B453 KYLLE B453 TAMRU KURTT B453 KATCH B453 MDO WITTI4
Origin Wx: KSBD 272051Z 28004KT 5SM HZ CLR 25/08 A3001
Dest. Wx: PANC 272053Z 32005KT 10SM FEW055 FEW200 19/06 A2984 RMK AO2 SLP105 T01940061 56008
Notes:

Financial History
Total Freight: 71,325lbs
Average Load: 71,325lbs/flt
Fuel Used: 88,926lbs
Avg. Fuel Used: 88,926lbs/flt
Fuel Expense: $24,899
Avg. Fuel Expense: $24,899
Avg. Fuel Cost: $0.28/lbs
Total Gross Income: $215,402
Pilot Pay: $239
Total Expenses: $28,448
Total Revenue: $160,828
Average Revenue: $215,401.50